Terminal Aerodrome Forecast
Issued by NWS

Home | Current Version | Previous Version | Text Only | Print | Product List | Glossary On
Versions: 1 2 3 4 5 6 7 8 9 10 11 12 13 14 15 16 17 18 19 20 21 22 23 24 25 26 27 28 29 30 31 32 33
000
FTUS41 KBUF 211100
TAFJHW
TAF
KJHW 211123Z 2112/2212 20009KT 6SM -SHRA VCTS OVC012CB
     FM211400 22009KT 6SM -SHRA VCTS OVC025CB
     FM211700 25009KT P6SM VCSH BKN035
     FM212200 28008KT P6SM VCSH BKN025
     FM220300 32008KT P6SM VCSH OVC003
      AMD LTD TO CLD VIS AND WIND=

USA.gov is the U.S. government's official web portal to all federal, state and local government web resources and services.